Pagina principală
METAR-TAF:

METAR-TAF

Aeroporturi :

Maré, Noua Caledonie

Latitudine: 21-28-53S, longitudine: 168-02-15E, elevație: 42 m

METAR: lipsă

Ora: 22:26 (11:26 UTC)

Prognoză

Raportul a fost făcut în urmă cu 18 ore și 26 de minute, la 17:00 UTC
Prognoză valabilă de la 17 ora 18 UTC la 18 ora 18 UTC
Vânt 8 kt de la Est/Sud-est
Vizibilitate de 10 km sau mai mult
Nori împrăștiați la o înălțime de 2500 picior
Nori fragmentați la o înălțime de 4000 picior
Temporar
de la 18 ora 03 UTC la 18 ora 18 UTC
averse de ploaie,

TAF: NWWR 171700Z 1718/1818 12008KT 9999 SCT025 BKN040 TEMPO 1803/1818 SHRA

Observații și prognoze meteo pentru peste 4.000 de aeroporturi (rapoarte METAR și TAF).

Stațiile disponibile sunt reprezentate pe hartă prin puncte galbene și roșii.

Țineți indicatorul mouse-ului pe punctul dorit pentru a vedea denumirea stației.

Apoi, faceți clic pentru a vedea observațiile și prognozele meteorologice.

Pentru a schimba harta: Pentru mărire, faceți clic pe butoanele verzi cu cruce neagră; pentru micșorare, pe butonul verde cu o liniuță; pentru hărți învecinate, pe săgețile verzi.


METAR-TAF: